Time;durP1;ratioP1;P1;durP2;ratioP2;P2;SDS_P1;SDS_P2;PMS_P1;PMS_P2;Temp;Humidity;BMP_temperature;BMP_pressure;BME280_temperature;BME280_humidity;BME280_pressure;Samples;Min_cycle;Max_cycle;Signal;HPM_P1;HPM_P2
2021/01/12 00:01:59;;;;;;;8.77;5.88;;;;;;;1.22;77.11;99486.22;2293826;66;20774;-73
2021/01/12 00:05:01;;;;;;;6.78;5.43;;;;;;;1.21;77.11;99480.25;2295682;69;20328;-73
2021/01/12 00:08:07;;;;;;;6.94;5.53;;;;;;;1.20;77.25;99478.50;2296835;69;20337;-73
2021/01/12 00:11:09;;;;;;;8.87;6.11;;;;;;;1.23;77.32;99475.19;2296930;69;20887;-73
2021/01/12 00:17:32;;;;;;;6.69;5.32;;;;;;;1.21;77.51;99461.47;2295694;67;44866;-74
2021/01/12 00:20:34;;;;;;;8.07;5.11;;;;;;;1.23;77.54;99453.84;2296864;69;20291;-73
2021/01/12 00:23:35;;;;;;;8.63;6.28;;;;;;;1.24;77.46;99455.59;2295903;69;20311;-73
2021/01/12 00:26:37;;;;;;;8.02;5.26;;;;;;;1.26;77.44;99459.06;2294998;69;20174;-73
2021/01/12 00:29:39;;;;;;;7.88;5.72;;;;;;;1.27;77.57;99448.06;2296078;69;20815;-73
2021/01/12 00:35:47;;;;;;;6.71;5.07;;;;;;;1.27;77.71;99441.25;2268108;70;20304;-77
2021/01/12 00:38:48;;;;;;;6.91;4.72;;;;;;;1.31;77.68;99445.63;2268609;70;20450;-77
2021/01/12 00:41:55;;;;;;;6.90;4.94;;;;;;;1.34;77.62;99435.50;2272793;70;20331;-77
2021/01/12 00:44:56;;;;;;;6.28;4.98;;;;;;;1.34;77.64;99434.63;2273660;70;20611;-77
2021/01/12 00:47:58;;;;;;;6.61;5.38;;;;;;;1.36;77.70;99430.44;2275773;68;20646;-77
2021/01/12 00:51:00;;;;;;;6.15;4.81;;;;;;;1.38;77.68;99433.91;2276930;70;20411;-77
2021/01/12 00:54:05;;;;;;;6.64;5.19;;;;;;;1.36;77.79;99426.19;2276402;70;20336;-77
2021/01/12 00:57:21;;;;;;;6.17;4.90;;;;;;;1.38;77.76;99422.00;2276576;70;21215;-77
2021/01/12 01:00:22;;;;;;;8.18;4.79;;;;;;;1.39;77.76;99418.59;2274589;68;32139;-76
2021/01/12 01:03:24;;;;;;;7.03;4.61;;;;;;;1.39;77.84;99421.16;2276667;70;20376;-77
2021/01/12 01:06:26;;;;;;;5.68;4.72;;;;;;;1.39;77.87;99420.28;2282206;70;20304;-77
2021/01/12 01:09:27;;;;;;;6.53;4.84;;;;;;;1.42;77.81;99415.28;2277528;70;20432;-77
2021/01/12 01:12:29;;;;;;;6.81;4.94;;;;;;;1.43;77.85;99414.44;2276920;70;20290;-77
2021/01/12 01:15:31;;;;;;;7.72;5.53;;;;;;;1.44;77.85;99417.09;2276931;67;20336;-76
2021/01/12 01:18:33;;;;;;;6.06;4.68;;;;;;;1.45;78.05;99420.50;2276261;70;20176;-77
2021/01/12 01:21:35;;;;;;;6.26;4.66;;;;;;;1.44;78.07;99411.09;2277414;70;20302;-77
2021/01/12 01:24:36;;;;;;;6.56;5.34;;;;;;;1.43;78.16;99414.44;2276537;70;20336;-77
2021/01/12 01:27:38;;;;;;;5.24;4.50;;;;;;;1.42;78.26;99412.72;2277049;70;20356;-77
2021/01/12 01:30:39;;;;;;;7.40;5.18;;;;;;;1.45;78.26;99412.84;2276513;70;20840;-76
2021/01/12 01:33:42;;;;;;;7.29;5.27;;;;;;;1.45;78.27;99412.84;2274440;70;20356;-77
2021/01/12 01:36:43;;;;;;;7.88;5.72;;;;;;;1.45;78.25;99405.16;2271551;70;20164;-76
2021/01/12 01:39:45;;;;;;;6.17;5.23;;;;;;;1.46;78.26;99410.34;2269939;70;20312;-77
2021/01/12 01:42:47;;;;;;;7.79;5.59;;;;;;;1.43;78.58;99410.19;2270578;70;20136;-77
2021/01/12 01:45:51;;;;;;;7.79;5.56;;;;;;;1.44;78.84;99411.09;2270015;68;20769;-77
2021/01/12 01:48:53;;;;;;;7.78;5.86;;;;;;;1.43;79.15;99401.66;2270429;70;20345;-76
2021/01/12 01:51:55;;;;;;;8.30;5.29;;;;;;;1.40;79.43;99402.44;2271687;70;20795;-76
2021/01/12 01:54:58;;;;;;;6.45;4.99;;;;;;;1.38;79.79;99398.97;2270304;70;20309;-76
2021/01/12 01:58:00;;;;;;;7.10;4.84;;;;;;;1.35;80.25;99393.75;2270838;70;20851;-76
2021/01/12 02:01:02;;;;;;;6.79;5.13;;;;;;;1.33;80.81;99397.97;2269386;68;23554;-77
2021/01/12 02:04:24;;;;;;;6.00;4.84;;;;;;;1.33;81.10;99382.59;2270289;70;20329;-77
2021/01/12 02:07:28;;;;;;;6.97;5.04;;;;;;;1.33;81.51;99374.06;2271475;70;20337;-77
2021/01/12 02:10:30;;;;;;;6.86;5.24;;;;;;;1.31;81.88;99374.03;2271148;70;20149;-77
2021/01/12 02:13:32;;;;;;;6.96;5.11;;;;;;;1.25;82.46;99367.81;2270677;70;20296;-76
2021/01/12 02:16:35;;;;;;;8.18;5.74;;;;;;;1.21;83.00;99366.88;2269276;68;22762;-77
2021/01/12 02:19:38;;;;;;;7.49;5.76;;;;;;;1.21;83.54;99354.06;2270739;70;20816;-77
2021/01/12 02:22:42;;;;;;;8.51;5.46;;;;;;;1.17;83.91;99340.34;2269909;70;21064;-77
2021/01/12 02:25:46;;;;;;;7.93;5.39;;;;;;;1.15;84.23;99333.44;2270179;70;20829;-76
2021/01/12 02:28:48;;;;;;;7.19;5.13;;;;;;;1.15;84.47;99329.19;2274816;70;20283;-77
2021/01/12 02:31:51;;;;;;;7.01;5.38;;;;;;;1.13;84.88;99335.94;2269833;68;20307;-77
2021/01/12 02:34:56;;;;;;;8.81;6.08;;;;;;;1.14;84.97;99340.25;2274374;70;20280;-76
2021/01/12 02:37:58;;;;;;;6.79;5.18;;;;;;;1.13;85.15;99335.94;2276943;70;20171;-76
2021/01/12 02:41:17;;;;;;;7.38;5.53;;;;;;;1.15;85.27;99329.19;2277683;70;20299;-77
2021/01/12 02:44:22;;;;;;;;;;;;;;;1.17;85.42;99334.34;2275368;70;20416;-76
2021/01/12 02:47:24;;;;;;;6.81;5.19;;;;;;;1.16;85.46;99323.25;2275143;67;23156;-77
2021/01/12 02:50:26;;;;;;;9.21;5.21;;;;;;;1.16;85.64;99325.81;2277211;70;20407;-76
2021/01/12 02:53:27;;;;;;;6.71;4.78;;;;;;;1.16;85.91;99315.59;2275082;70;20307;-76
2021/01/12 02:56:29;;;;;;;6.18;5.18;;;;;;;1.17;86.10;99308.78;2274959;70;20286;-76
2021/01/12 02:59:31;;;;;;;8.01;5.61;;;;;;;1.18;86.14;99307.97;2275849;70;20160;-77
2021/01/12 03:02:32;;;;;;;7.10;5.46;;;;;;;1.18;86.49;99307.97;2276340;67;24420;-77
2021/01/12 03:05:34;;;;;;;6.00;5.07;;;;;;;1.14;86.93;99294.22;2276874;70;20787;-77
2021/01/12 03:08:35;;;;;;;8.06;5.25;;;;;;;1.17;87.07;99289.19;2278171;70;20319;-78
2021/01/12 03:11:37;;;;;;;6.55;5.50;;;;;;;1.17;87.26;99278.09;2279105;70;20290;-78
2021/01/12 03:14:41;;;;;;;6.57;4.59;;;;;;;1.15;87.46;99283.16;2276686;70;20315;-77
2021/01/12 03:17:43;;;;;;;6.82;4.78;;;;;;;1.18;87.63;99279.81;2276594;67;20324;-78
2021/01/12 03:20:45;;;;;;;5.49;4.77;;;;;;;1.18;87.72;99269.59;2276703;70;20358;-78
2021/01/12 03:23:47;;;;;;;8.18;5.56;;;;;;;1.20;87.64;99260.28;2278109;70;20159;-78
2021/01/12 03:26:48;;;;;;;6.00;5.15;;;;;;;1.19;87.71;99256.00;2277060;70;20589;-78
2021/01/12 03:29:50;;;;;;;6.20;4.84;;;;;;;1.19;87.64;99248.31;2277997;70;20302;-77
2021/01/12 03:32:55;;;;;;;6.38;4.91;;;;;;;1.21;87.65;99239.00;2276994;67;21546;-77
2021/01/12 03:35:57;;;;;;;6.86;5.25;;;;;;;1.20;87.69;99238.13;2271472;70;20174;-78
2021/01/12 03:38:59;;;;;;;6.56;4.95;;;;;;;1.19;87.63;99233.84;2271577;70;20304;-77
2021/01/12 03:42:00;;;;;;;6.95;5.10;;;;;;;1.13;87.78;99235.34;2270996;70;20319;-77
2021/01/12 03:45:04;;;;;;;6.96;5.69;;;;;;;1.13;87.91;99238.78;2270586;70;20363;-76
2021/01/12 03:48:09;;;;;;;8.53;5.88;;;;;;;1.10;87.90;99230.16;2269504;68;24184;-77
2021/01/12 03:51:11;;;;;;;6.31;4.76;;;;;;;1.09;87.99;99219.06;2270737;70;20313;-77
2021/01/12 03:54:13;;;;;;;6.71;5.29;;;;;;;1.08;87.95;99209.66;2270084;70;20314;-76
2021/01/12 03:57:14;;;;;;;6.15;4.96;;;;;;;1.08;88.08;99208.78;2270148;70;20172;-77
2021/01/12 04:00:17;;;;;;;6.61;4.79;;;;;;;1.12;87.96;99190.16;2269589;68;20663;-77
2021/01/12 04:03:19;;;;;;;5.89;4.74;;;;;;;1.10;87.99;99181.59;2270338;70;20200;-77
2021/01/12 04:06:21;;;;;;;6.56;4.44;;;;;;;1.11;88.08;99180.75;2269803;70;20738;-76
2021/01/12 04:09:23;;;;;;;6.27;4.74;;;;;;;1.14;88.24;99181.72;2270294;70;20148;-77
2021/01/12 04:12:25;;;;;;;5.10;4.45;;;;;;;1.15;88.26;99173.22;2269148;70;20655;-76
2021/01/12 04:15:27;;;;;;;4.97;4.52;;;;;;;1.17;88.26;99171.56;2269241;68;21077;-76
2021/01/12 04:18:29;;;;;;;5.32;4.60;;;;;;;1.16;88.43;99172.38;2271651;70;20244;-76
2021/01/12 04:21:30;;;;;;;5.92;4.52;;;;;;;1.17;88.60;99166.44;2270020;70;20319;-76
2021/01/12 04:24:33;;;;;;;4.93;4.45;;;;;;;1.23;88.64;99165.75;2270980;70;20214;-76
2021/01/12 04:27:34;;;;;;;5.35;4.84;;;;;;;1.26;88.52;99157.31;2270221;70;20318;-76
2021/01/12 04:30:36;;;;;;;4.34;3.74;;;;;;;1.25;88.66;99156.44;2270877;67;23857;-76
2021/01/12 04:33:38;;;;;;;6.70;4.65;;;;;;;1.26;88.84;99147.06;2270587;70;20284;-76
2021/01/12 04:36:39;;;;;;;6.21;4.88;;;;;;;1.27;89.01;99148.84;2270878;70;20762;-76
2021/01/12 04:39:41;;;;;;;5.64;4.78;;;;;;;1.26;89.08;99136.84;2271756;70;20659;-76
2021/01/12 04:42:43;;;;;;;4.21;3.74;;;;;;;1.29;89.18;99126.72;2270841;70;20296;-76
2021/01/12 04:45:44;;;;;;;4.26;3.86;;;;;;;1.31;89.13;99125.06;2269297;67;46648;-77
2021/01/12 04:48:49;;;;;;;5.01;3.86;;;;;;;1.33;89.16;99115.75;2270837;70;20181;-76
2021/01/12 04:51:50;;;;;;;4.85;4.36;;;;;;;1.34;89.20;99108.13;2270839;70;20794;-76
2021/01/12 04:54:53;;;;;;;4.69;3.74;;;;;;;1.35;89.44;99101.31;2270698;70;20300;-76
2021/01/12 04:57:55;;;;;;;4.01;3.65;;;;;;;1.36;89.45;99103.03;2271446;70;21086;-76
2021/01/12 05:00:57;;;;;;;4.26;3.70;;;;;;;1.38;89.54;99103.94;2270148;68;20904;-76
2021/01/12 05:04:03;;;;;;;5.91;3.50;;;;;;;1.41;89.66;99101.47;2270734;70;20621;-75
2021/01/12 05:07:07;;;;;;;3.47;3.17;;;;;;;1.43;89.62;99089.56;2270482;70;20413;-76
2021/01/12 05:10:11;;;;;;;4.26;3.81;;;;;;;1.44;89.60;99076.84;2270172;70;20288;-76
2021/01/12 05:13:13;;;;;;;4.39;3.99;;;;;;;1.46;89.49;99087.13;2270915;70;20975;-76
2021/01/12 05:16:14;;;;;;;3.71;3.41;;;;;;;1.47;89.56;99083.75;2268892;68;22913;-76
2021/01/12 05:19:24;;;;;;;3.92;3.53;;;;;;;1.49;89.56;99070.16;2271153;70;20337;-76
2021/01/12 05:22:30;;;;;;;4.14;3.67;;;;;;;1.49;89.58;99067.59;2271251;70;20296;-75
2021/01/12 05:25:36;;;;;;;4.91;3.59;;;;;;;1.55;89.56;99060.91;2270029;70;20303;-76
2021/01/12 05:28:38;;;;;;;5.23;3.56;;;;;;;1.54;89.58;99066.84;2270743;70;20325;-76
2021/01/12 05:31:44;;;;;;;3.84;3.49;;;;;;;1.55;89.49;99066.88;2270093;67;20660;-77
2021/01/12 05:34:47;;;;;;;4.45;3.53;;;;;;;1.55;89.57;99051.53;2270598;70;21024;-76
2021/01/12 05:37:50;;;;;;;3.49;3.17;;;;;;;1.55;89.42;99048.13;2270195;70;20346;-77
2021/01/12 05:40:55;;;;;;;3.20;2.90;;;;;;;1.56;89.38;99049.84;2270611;70;20821;-78
2021/01/12 05:43:57;;;;;;;2.91;2.56;;;;;;;1.55;89.21;99040.44;2270999;70;20323;-78
2021/01/12 05:46:58;;;;;;;3.74;2.59;;;;;;;1.51;89.09;99031.81;2269353;67;20803;-78
2021/01/12 05:50:00;;;;;;;4.01;2.33;;;;;;;1.45;89.18;99030.00;2271085;70;20931;-77
2021/01/12 05:53:04;;;;;;;3.22;2.42;;;;;;;1.45;89.19;99031.69;2269921;70;20410;-77
2021/01/12 05:56:06;;;;;;;2.76;2.56;;;;;;;1.40;89.13;99026.41;2271076;70;20429;-78
2021/01/12 05:59:16;;;;;;;2.28;2.06;;;;;;;1.37;89.15;99028.91;2270428;70;20316;-77
2021/01/12 06:02:23;;;;;;;2.16;1.86;;;;;;;1.35;89.07;99022.88;2269689;70;21511;-80
2021/01/12 06:05:24;;;;;;;1.84;1.74;;;;;;;1.33;89.05;99021.13;2270076;70;20287;-77
2021/01/12 06:08:27;;;;;;;1.95;1.71;;;;;;;1.29;88.94;99014.19;2269353;70;20303;-77
2021/01/12 06:11:32;;;;;;;3.51;2.10;;;;;;;1.23;88.82;99006.34;2269257;70;20292;-77
2021/01/12 06:14:38;;;;;;;1.67;1.58;;;;;;;1.23;88.96;99006.34;2268302;70;20318;-77
2021/01/12 06:17:41;;;;;;;1.40;1.30;;;;;;;1.17;88.81;98996.84;2267262;67;54519;-77
2021/01/12 06:20:55;;;;;;;1.26;1.16;;;;;;;1.08;88.85;99000.03;2270063;70;20749;-77
2021/01/12 06:24:00;;;;;;;1.50;1.40;;;;;;;1.07;88.92;98999.97;2268709;70;20422;-78
2021/01/12 06:27:13;;;;;;;1.31;1.21;;;;;;;1.02;88.88;98997.28;2267490;70;20191;-77
2021/01/12 06:30:17;;;;;;;1.31;1.21;;;;;;;0.98;89.07;98998.03;2268398;67;24044;-78
2021/01/12 06:33:21;;;;;;;1.51;1.34;;;;;;;0.97;89.02;98986.09;2267057;70;20398;-77
2021/01/12 06:36:26;;;;;;;1.86;1.66;;;;;;;0.97;88.99;98985.22;2267945;70;20156;-77
2021/01/12 06:39:43;;;;;;;2.19;1.99;;;;;;;0.92;88.98;98984.25;2268107;70;20144;-76
2021/01/12 06:42:45;;;;;;;1.92;1.75;;;;;;;0.90;89.09;98992.72;2267214;70;20177;-79
2021/01/12 06:45:47;;;;;;;1.40;1.30;;;;;;;0.87;89.23;98991.75;2266326;67;22095;-73
2021/01/12 06:48:49;;;;;;;1.46;1.36;;;;;;;0.86;nan;98984.91;2267671;70;20172;-73
2021/01/12 06:52:00;;;;;;;1.69;1.59;;;;;;;0.85;89.15;98986.59;2269851;70;21125;-73
2021/01/12 06:55:07;;;;;;;1.84;1.50;;;;;;;0.80;89.43;98983.06;2267104;70;20517;-74
2021/01/12 06:58:09;;;;;;;1.63;1.53;;;;;;;0.81;89.42;98979.69;2268680;70;20412;-74
2021/01/12 07:01:21;;;;;;;1.60;1.50;;;;;;;0.79;89.42;98977.91;2266544;68;23490;-74
2021/01/12 07:04:23;;;;;;;1.72;1.62;;;;;;;0.82;89.57;98975.44;2267202;70;20184;-72
2021/01/12 07:07:27;;;;;;;1.44;1.34;;;;;;;0.79;89.48;98975.34;2267467;70;20749;-76
2021/01/12 07:10:29;;;;;;;1.54;1.44;;;;;;;0.78;89.49;98969.38;2267442;70;20167;-72
2021/01/12 07:13:37;;;;;;;2.02;1.66;;;;;;;0.80;89.47;98971.97;2266891;70;20897;-72
2021/01/12 07:16:39;;;;;;;1.40;1.30;;;;;;;0.83;89.50;98974.63;2266405;67;20444;-74
2021/01/12 07:19:40;;;;;;;1.52;1.42;;;;;;;0.82;89.36;98971.19;2267499;70;20148;-72
2021/01/12 07:22:55;;;;;;;1.50;1.40;;;;;;;0.84;89.47;98961.00;2267836;70;20288;-73
2021/01/12 07:26:04;;;;;;;1.50;1.40;;;;;;;0.85;89.52;98968.72;2265955;70;20177;-74
2021/01/12 07:29:06;;;;;;;1.11;1.08;;;;;;;0.83;89.35;98960.16;2266671;70;21118;-74
2021/01/12 07:32:08;;;;;;;1.17;1.10;;;;;;;0.84;89.51;98959.31;2265993;67;21126;-74
2021/01/12 07:35:10;;;;;;;1.50;1.40;;;;;;;0.86;89.45;98955.13;2267989;70;20323;-75
2021/01/12 07:38:17;;;;;;;1.36;1.26;;;;;;;0.90;89.49;98961.19;2272646;70;20353;-75
2021/01/12 07:41:19;;;;;;;1.73;1.62;;;;;;;0.87;89.28;98954.28;2269092;70;20316;-75
2021/01/12 07:44:21;;;;;;;1.41;1.10;;;;;;;0.87;89.34;98961.09;2269037;70;20170;-76
2021/01/12 07:47:24;;;;;;;1.31;1.20;;;;;;;0.87;89.48;98950.88;2268741;68;24791;-75
2021/01/12 07:50:29;;;;;;;1.24;1.14;;;;;;;0.90;89.53;98946.72;2268978;70;21267;-74
2021/01/12 07:53:32;;;;;;;1.48;1.14;;;;;;;0.88;89.51;98944.94;2267810;70;20494;-75
2021/01/12 07:56:34;;;;;;;1.31;1.21;;;;;;;0.91;89.59;98932.25;2267347;70;20170;-75
2021/01/12 07:59:38;;;;;;;1.24;0.90;;;;;;;0.92;89.49;98930.56;2267623;70;20797;-75
2021/01/12 08:02:43;;;;;;;1.11;1.01;;;;;;;0.91;89.42;98934.81;2266831;67;28731;-75
2021/01/12 08:05:45;;;;;;;2.08;1.17;;;;;;;0.93;89.56;98925.50;2269196;70;20209;-76
2021/01/12 08:08:55;;;;;;;1.40;1.30;;;;;;;0.93;89.48;98930.59;2269675;70;20644;-77
2021/01/12 08:12:00;;;;;;;1.13;1.02;;;;;;;0.94;89.56;98926.34;2270086;70;20315;-77
2021/01/12 08:15:12;;;;;;;1.36;1.26;;;;;;;0.96;89.41;98922.16;2268842;70;20907;-78
2021/01/12 08:18:16;;;;;;;1.34;0.99;;;;;;;0.94;89.34;98921.25;2268848;70;20621;-77
2021/01/12 08:21:17;;;;;;;0.90;0.88;;;;;;;0.93;89.48;98922.06;2269915;70;20178;-77
2021/01/12 08:24:24;;;;;;;1.02;0.89;;;;;;;0.94;89.57;98917.00;2268826;70;20180;-77
2021/01/12 08:27:26;;;;;;;1.28;0.97;;;;;;;0.93;89.56;98916.97;2275934;70;20160;-84
2021/01/12 08:30:33;;;;;;;1.54;0.80;;;;;;;0.96;89.70;98923.00;2288085;67;23086;-82
2021/01/12 08:33:40;;;;;;;1.12;0.92;;;;;;;0.96;89.49;98920.44;2279803;70;20152;-83
2021/01/12 08:36:43;;;;;;;0.94;0.90;;;;;;;0.96;89.49;98909.38;2280665;70;20188;-86
2021/01/12 08:40:04;;;;;;;1.16;1.06;;;;;;;0.94;89.44;98911.03;2310521;69;20315;-85
2021/01/12 08:43:14;;;;;;;1.10;1.00;;;;;;;0.91;89.53;98904.16;2310840;69;20106;-86
2021/01/12 08:46:29;;;;;;;0.81;0.81;;;;;;;0.92;89.67;98917.78;2308413;69;20332;-84
2021/01/12 08:49:32;;;;;;;1.48;1.14;;;;;;;0.96;89.69;98911.91;2316197;69;20178;-84
2021/01/12 08:52:37;;;;;;;1.01;0.92;;;;;;;0.93;89.57;98909.28;2314134;69;20162;-87
2021/01/12 08:55:39;;;;;;;1.21;1.05;;;;;;;0.94;89.63;98916.13;2310085;69;20153;-82
2021/01/12 08:58:43;;;;;;;1.53;1.00;;;;;;;0.96;89.61;98915.34;2310672;69;20327;-82
2021/01/12 09:01:51;;;;;;;1.04;1.04;;;;;;;0.97;89.48;98917.06;2306005;66;146024;-84
2021/01/12 09:08:42;;;;;;;0.99;0.95;;;;;;;1.01;89.45;98928.22;2313788;69;20216;-81
2021/01/12 09:11:53;;;;;;;1.00;1.00;;;;;;;1.03;89.43;98908.69;2309496;69;20310;-80
2021/01/12 09:14:54;;;;;;;1.53;1.09;;;;;;;1.06;89.38;98919.84;2313046;69;20724;-80
2021/01/12 09:18:05;;;;;;;1.06;1.00;;;;;;;1.08;89.38;98919.91;2310805;66;21533;-83
2021/01/12 09:21:07;;;;;;;1.06;1.00;;;;;;;1.08;89.32;98918.22;2309881;69;20174;-79
2021/01/12 09:24:19;;;;;;;0.86;0.86;;;;;;;1.09;89.43;98917.41;2310788;69;20416;-79
2021/01/12 09:27:26;;;;;;;1.19;0.90;;;;;;;1.09;89.56;98917.41;2311211;69;20416;-81
2021/01/12 09:30:28;;;;;;;0.77;0.77;;;;;;;1.13;89.56;98913.22;2312383;67;27642;-80
2021/01/12 09:33:30;;;;;;;1.18;0.80;;;;;;;1.16;89.70;98918.41;2312089;69;20160;-80
2021/01/12 09:36:32;;;;;;;1.10;1.10;;;;;;;1.20;89.72;98910.84;2313554;69;20197;-81
2021/01/12 09:39:34;;;;;;;0.50;0.50;;;;;;;1.24;89.65;98919.44;2313283;69;20156;-80
2021/01/12 09:42:36;;;;;;;0.57;0.57;;;;;;;1.29;89.62;98922.13;2311202;69;20346;-79
2021/01/12 09:45:41;;;;;;;0.61;0.61;;;;;;;1.31;89.59;98913.66;2322041;67;20530;-81
2021/01/12 09:48:43;;;;;;;0.50;0.50;;;;;;;1.33;89.51;98914.56;2319467;69;20325;-80
2021/01/12 09:51:45;;;;;;;0.40;0.40;;;;;;;1.32;89.51;98912.84;2317819;69;20342;-81
2021/01/12 09:54:46;;;;;;;0.82;0.50;;;;;;;1.37;89.54;98913.81;2322222;69;20164;-82
2021/01/12 09:57:50;;;;;;;0.39;0.39;;;;;;;1.41;89.38;98918.16;2326052;69;20172;-81
2021/01/12 10:00:51;;;;;;;0.50;0.46;;;;;;;1.45;89.35;98907.22;2323162;67;24164;-80
2021/01/12 10:03:54;;;;;;;0.77;0.30;;;;;;;1.46;89.31;98906.38;2319872;69;20297;-82
2021/01/12 10:07:00;;;;;;;0.30;0.30;;;;;;;1.52;89.23;98908.19;2319256;69;20333;-81
2021/01/12 10:10:03;;;;;;;0.30;0.30;;;;;;;1.52;89.22;98918.44;2324181;69;20314;-83
2021/01/12 10:13:04;;;;;;;0.47;0.32;;;;;;;1.53;89.26;98904.81;2325125;69;20172;-81
2021/01/12 10:16:06;;;;;;;0.30;0.30;;;;;;;1.55;89.19;98905.72;2323953;69;22718;-82
2021/01/12 10:19:08;;;;;;;0.75;0.40;;;;;;;1.59;89.14;98902.38;2321746;69;20152;-82
2021/01/12 10:22:10;;;;;;;0.31;0.30;;;;;;;1.62;89.09;98888.81;2324170;69;20404;-82
2021/01/12 10:25:12;;;;;;;0.40;0.40;;;;;;;1.64;88.99;98887.16;2323217;69;20325;-82
2021/01/12 10:28:14;;;;;;;0.30;0.30;;;;;;;1.66;88.94;98894.03;2313786;69;20309;-80
2021/01/12 10:31:18;;;;;;;0.20;0.20;;;;;;;1.68;88.90;98891.50;2318516;67;23604;-81
2021/01/12 10:34:20;;;;;;;0.29;0.29;;;;;;;1.69;88.89;98883.88;2320493;69;20326;-81
2021/01/12 10:37:22;;;;;;;0.49;0.20;;;;;;;1.71;88.85;98873.66;2318627;69;20313;-80
2021/01/12 10:40:25;;;;;;;0.25;0.25;;;;;;;1.72;88.80;98880.50;2316683;69;20289;-79
2021/01/12 10:43:26;;;;;;;0.34;0.30;;;;;;;1.72;88.92;98872.84;2310925;69;20324;-79
2021/01/12 10:46:28;;;;;;;0.30;0.30;;;;;;;1.74;88.96;98872.03;2309653;66;22640;-77
2021/01/12 10:49:30;;;;;;;1.41;0.30;;;;;;;1.74;88.90;98876.28;2310489;69;20799;-78
2021/01/12 10:52:32;;;;;;;0.21;0.21;;;;;;;1.75;88.97;98867.78;2311034;69;20301;-78
2021/01/12 10:55:33;;;;;;;0.20;0.20;;;;;;;1.76;88.99;98855.00;2310068;69;20285;-78
2021/01/12 10:58:35;;;;;;;0.30;0.30;;;;;;;1.78;88.89;98849.94;2311083;69;20352;-78
2021/01/12 11:01:37;;;;;;;0.30;0.30;;;;;;;1.81;88.92;98842.34;2310190;66;22031;-78
2021/01/12 11:04:39;;;;;;;0.20;0.20;;;;;;;1.83;88.95;98845.78;2309380;69;20822;-78
2021/01/12 11:07:41;;;;;;;0.20;0.20;;;;;;;1.86;88.89;98833.06;2310768;69;20285;-78
2021/01/12 11:10:43;;;;;;;0.20;0.20;;;;;;;1.87;88.84;98832.22;2310623;69;20551;-77
2021/01/12 11:13:46;;;;;;;0.20;0.20;;;;;;;1.88;88.88;98833.09;2310195;69;20340;-78
2021/01/12 11:16:48;;;;;;;0.20;0.20;;;;;;;1.89;88.98;98832.25;2310744;67;21442;-76
2021/01/12 11:19:50;;;;;;;0.20;0.20;;;;;;;1.90;88.98;98819.47;2310307;69;20712;-77
2021/01/12 11:22:52;;;;;;;0.20;0.20;;;;;;;1.88;89.02;98828.81;2309701;69;20304;-77
2021/01/12 11:25:54;;;;;;;0.20;0.20;;;;;;;1.90;89.04;98808.38;2310404;69;20311;-78
2021/01/12 11:28:56;;;;;;;0.20;0.20;;;;;;;1.92;89.08;98817.81;2311197;69;20321;-79
2021/01/12 11:31:59;;;;;;;0.20;0.20;;;;;;;1.92;89.13;98811.81;2311700;66;21842;-80
2021/01/12 11:35:02;;;;;;;0.20;0.20;;;;;;;1.96;89.09;98803.38;2311362;69;20456;-81
2021/01/12 11:38:04;;;;;;;0.20;0.20;;;;;;;1.97;89.01;98803.41;2310621;69;20675;-80
2021/01/12 11:41:10;;;;;;;0.20;0.20;;;;;;;1.99;88.98;98801.75;2314345;69;20305;-81
2021/01/12 11:44:12;;;;;;;0.20;0.20;;;;;;;2.02;88.95;98801.81;2315373;68;20341;-80
2021/01/12 11:47:14;;;;;;;0.20;0.20;;;;;;;1.99;88.88;98796.66;2311758;66;24994;-80
2021/01/12 11:50:16;;;;;;;0.20;0.20;;;;;;;1.99;88.93;98791.53;2313978;69;20325;-81
2021/01/12 11:53:17;;;;;;;0.29;0.20;;;;;;;2.00;89.11;98780.44;2314628;69;20178;-81
2021/01/12 11:56:19;;;;;;;0.20;0.20;;;;;;;2.04;89.05;98789.03;2313660;69;20174;-80
2021/01/12 11:59:27;;;;;;;0.20;0.20;;;;;;;2.06;89.08;98780.56;2311110;69;20395;-79
2021/01/12 12:02:29;;;;;;;0.20;0.20;;;;;;;2.07;88.95;98782.28;2312354;67;22077;-79
2021/01/12 12:05:31;;;;;;;0.30;0.30;;;;;;;2.08;89.08;98778.88;2313510;69;20285;-81
2021/01/12 12:08:36;;;;;;;0.20;0.20;;;;;;;2.12;89.10;98774.69;2312667;69;20326;-78
2021/01/12 12:11:39;;;;;;;0.77;0.20;;;;;;;2.15;89.09;98772.16;2312662;69;20315;-81
2021/01/12 12:14:41;;;;;;;0.47;0.28;;;;;;;2.17;89.11;98760.28;2313486;69;20348;-80
2021/01/12 12:17:43;;;;;;;0.20;0.20;;;;;;;2.20;89.18;98767.16;2311206;67;24071;-81
2021/01/12 12:20:45;;;;;;;0.20;0.20;;;;;;;2.22;89.25;98766.34;2311604;69;20930;-81
2021/01/12 12:23:47;;;;;;;0.16;0.16;;;;;;;2.25;89.32;98762.97;2319099;69;20186;-83
2021/01/12 12:26:50;;;;;;;0.20;0.20;;;;;;;2.27;89.41;98751.06;2324095;69;20316;-83
2021/01/12 12:29:51;;;;;;;0.20;0.20;;;;;;;2.27;89.41;98749.34;2324672;69;20293;-83
2021/01/12 12:32:53;;;;;;;0.20;0.20;;;;;;;2.26;89.47;98751.91;2326279;66;23435;-83
2021/01/12 12:35:55;;;;;;;0.18;0.18;;;;;;;2.29;89.61;98747.69;2325121;69;20152;-84
2021/01/12 12:38:57;;;;;;;0.20;0.20;;;;;;;2.34;89.61;98742.66;2332440;69;20117;-85
2021/01/12 12:41:59;;;;;;;0.20;0.20;;;;;;;2.35;89.63;98744.38;2325332;69;20350;-83
2021/01/12 12:45:05;;;;;;;0.20;0.20;;;;;;;2.39;89.65;98741.03;2327307;69;20293;-83
2021/01/12 12:48:07;;;;;;;0.39;0.20;;;;;;;2.43;89.66;98737.69;2326738;67;20607;-83
2021/01/12 12:51:11;;;;;;;0.20;0.20;;;;;;;2.43;89.62;98735.13;2324890;69;20174;-81
2021/01/12 12:54:17;;;;;;;0.20;0.20;;;;;;;2.45;89.83;98736.00;2322730;69;20152;-83
2021/01/12 12:57:19;;;;;;;0.20;0.20;;;;;;;2.47;89.90;98736.91;2322131;69;20293;-83
2021/01/12 13:00:38;;;;;;;0.20;0.20;;;;;;;2.51;89.90;98735.25;2320972;67;20315;-82
2021/01/12 13:03:40;;;;;;;0.20;0.20;;;;;;;2.53;89.97;98733.59;2316416;69;20312;-81
2021/01/12 13:06:42;;;;;;;0.30;0.20;;;;;;;2.54;89.90;98728.50;2314329;69;20320;-81
2021/01/12 13:09:46;;;;;;;0.10;0.10;;;;;;;2.55;90.01;98730.22;2315620;69;20331;-81
2021/01/12 13:12:50;;;;;;;0.14;0.14;;;;;;;2.58;90.16;98727.69;2313830;69;20224;-81
2021/01/12 13:15:53;;;;;;;0.20;0.20;;;;;;;2.60;90.13;98722.59;2312951;67;24419;-81
2021/01/12 13:18:58;;;;;;;0.20;0.20;;;;;;;2.61;90.19;98725.19;2312211;69;20290;-79
2021/01/12 13:22:00;;;;;;;0.29;0.20;;;;;;;2.63;90.36;98727.78;2313356;69;20925;-81
2021/01/12 13:25:08;;;;;;;0.20;0.20;;;;;;;2.66;90.38;98728.66;2313347;69;20136;-81
2021/01/12 13:28:10;;;;;;;0.20;0.20;;;;;;;2.70;90.41;98721.91;2313524;69;20160;-80
2021/01/12 13:31:12;;;;;;;0.20;0.20;;;;;;;2.74;90.43;98721.13;2315408;67;26657;-82
2021/01/12 13:34:14;;;;;;;0.20;0.20;;;;;;;2.77;90.48;98721.16;2315857;69;20345;-81
2021/01/12 13:37:16;;;;;;;0.20;0.20;;;;;;;2.82;90.34;98723.78;2312865;69;20378;-81
2021/01/12 13:40:18;;;;;;;0.35;0.35;;;;;;;2.84;90.38;98722.97;2312315;69;20620;-81
2021/01/12 13:43:20;;;;;;;0.20;0.20;;;;;;;2.85;90.43;98721.28;2312525;69;20297;-81
2021/01/12 13:46:21;;;;;;;0.24;0.24;;;;;;;2.88;90.51;98711.09;2314496;67;20767;-81
2021/01/12 13:49:24;;;;;;;0.20;0.20;;;;;;;2.89;90.65;98711.13;2313056;69;20311;-81
2021/01/12 13:52:28;;;;;;;0.49;0.20;;;;;;;2.92;90.67;98711.16;2311591;69;20422;-81
2021/01/12 13:55:31;;;;;;;0.22;0.20;;;;;;;2.94;90.76;98716.31;2311861;69;20307;-80
2021/01/12 13:58:33;;;;;;;0.19;0.19;;;;;;;2.95;90.82;98713.75;2311314;69;20445;-80
2021/01/12 14:01:39;;;;;;;0.20;0.20;;;;;;;2.99;90.86;98714.66;2312278;69;23781;-80
2021/01/12 14:04:41;;;;;;;0.29;0.29;;;;;;;3.01;90.96;98713.84;2310196;69;20320;-79
2021/01/12 14:07:43;;;;;;;0.20;0.20;;;;;;;3.06;91.02;98723.31;2311258;69;20289;-80
2021/01/12 14:10:44;;;;;;;0.11;0.11;;;;;;;3.09;91.00;98723.38;2309540;69;21202;-80
2021/01/12 14:13:47;;;;;;;0.20;0.20;;;;;;;3.14;91.08;98724.28;2311468;69;20843;-81
2021/01/12 14:16:58;;;;;;;0.30;0.30;;;;;;;3.17;91.11;98721.75;2309045;67;25757;-81
2021/01/12 14:20:00;;;;;;;0.20;0.20;;;;;;;3.19;91.14;98728.63;2311813;69;20313;-81
2021/01/12 14:23:02;;;;;;;0.20;0.20;;;;;;;3.24;91.15;98731.28;2313046;69;20335;-81
2021/01/12 14:26:04;;;;;;;0.20;0.20;;;;;;;3.25;91.13;98727.88;2311726;69;20289;-80
2021/01/12 14:29:06;;;;;;;0.71;0.22;;;;;;;3.29;91.01;98735.63;2313508;69;20329;-79
2021/01/12 14:32:09;;;;;;;0.20;0.20;;;;;;;3.32;91.06;98734.81;2311392;67;20619;-80
2021/01/12 14:35:11;;;;;;;1.34;0.20;;;;;;;3.37;91.02;98745.97;2312693;69;20739;-79
2021/01/12 14:38:17;;;;;;;0.20;0.20;;;;;;;3.37;90.92;98740.84;2310296;69;20397;-79
2021/01/12 14:41:20;;;;;;;0.20;0.20;;;;;;;3.42;90.88;98743.50;2310627;69;20411;-79
2021/01/12 14:44:24;;;;;;;0.20;0.20;;;;;;;3.44;90.82;98750.38;2311262;69;20445;-80